createdAt,value
2019-02-09T00:00:14.725Z,35.57
2019-02-09T00:05:22.483Z,32.63
2019-02-09T00:10:28.552Z,37.10
2019-02-09T00:15:35.818Z,38.50
2019-02-09T00:20:44.934Z,41.23
2019-02-09T00:25:53.534Z,37.63
2019-02-09T00:31:02.387Z,39.43
2019-02-09T00:36:10.225Z,35.37
2019-02-09T00:41:17.536Z,36.03
2019-02-09T00:46:27.967Z,27.53
2019-02-09T00:51:34.491Z,17.03
2019-02-09T00:56:41.951Z,23.83
2019-02-09T01:01:48.740Z,20.87
2019-02-09T01:06:56.345Z,19.60
2019-02-09T01:12:04.491Z,18.43
2019-02-09T01:17:11.606Z,19.30
2019-02-09T01:22:19.243Z,21.33
2019-02-09T01:27:26.784Z,32.30
2019-02-09T01:32:33.947Z,30.47
2019-02-09T01:37:40.988Z,26.60
2019-02-09T01:42:49.697Z,25.80
2019-02-09T01:47:58.003Z,21.43
2019-02-09T01:53:05.920Z,17.30
2019-02-09T01:58:13.753Z,16.20
2019-02-09T02:03:21.333Z,20.30
2019-02-09T02:08:28.460Z,20.27
2019-02-09T02:13:36.027Z,19.33
2019-02-09T02:18:43.736Z,18.00
2019-02-09T02:23:50.312Z,17.97
2019-02-09T02:28:57.008Z,20.10
2019-02-09T02:34:04.775Z,19.30
2019-02-09T02:39:13.358Z,17.77
2019-02-09T02:44:21.383Z,18.37
2019-02-09T02:49:28.860Z,18.53
2019-02-09T02:54:36.523Z,19.07
2019-02-09T02:59:44.109Z,20.90
2019-02-09T03:04:50.489Z,24.97
2019-02-09T03:09:58.235Z,26.87
2019-02-09T03:15:04.990Z,27.43
2019-02-09T03:20:13.377Z,24.77
2019-02-09T03:25:26.304Z,24.73
2019-02-09T03:30:46.580Z,24.50
2019-02-09T03:35:45.027Z,26.37
2019-02-09T03:40:51.701Z,27.67
2019-02-09T03:45:58.681Z,25.63
2019-02-09T03:51:05.958Z,25.77
2019-02-09T03:56:13.916Z,25.17
2019-02-09T04:01:21.702Z,28.90
2019-02-09T04:06:29.519Z,30.83
2019-02-09T04:11:36.247Z,36.07
2019-02-09T04:16:44.333Z,33.10
2019-02-09T04:21:53.057Z,36.23
2019-02-09T04:27:00.932Z,36.20
2019-02-09T04:32:08.413Z,34.33
2019-02-09T04:37:14.790Z,36.30
2019-02-09T04:42:24.037Z,36.33
2019-02-09T04:47:32.576Z,34.87
2019-02-09T04:52:40.206Z,36.40
2019-02-09T04:57:47.764Z,38.57
2019-02-09T05:02:54.499Z,37.97
2019-02-09T05:08:01.107Z,37.23
2019-02-09T05:13:08.022Z,38.87
2019-02-09T05:18:15.437Z,41.23
2019-02-09T05:23:23.004Z,40.83
2019-02-09T05:28:31.180Z,41.13
2019-02-09T05:33:40.147Z,40.70
2019-02-09T05:38:46.306Z,39.53
2019-02-09T05:43:53.966Z,38.83
2019-02-09T05:49:01.719Z,39.83
2019-02-09T05:54:09.226Z,38.10
2019-02-09T05:59:16.873Z,36.67
2019-02-09T06:04:23.856Z,37.20
2019-02-09T06:09:30.223Z,38.87
2019-02-09T06:14:38.100Z,39.63
2019-02-09T06:19:44.458Z,36.80
2019-02-09T06:24:50.811Z,40.20
2019-02-09T06:29:57.135Z,37.43
2019-02-09T06:35:04.198Z,35.70
2019-02-09T06:40:13.163Z,35.93
2019-02-09T06:45:21.281Z,36.13
2019-02-09T06:50:30.686Z,37.23
2019-02-09T06:55:37.891Z,38.93
2019-02-09T07:00:45.273Z,34.97
2019-02-09T07:05:52.442Z,36.23
2019-02-09T07:10:59.400Z,37.23
2019-02-09T07:16:07.540Z,37.77
2019-02-09T07:21:14.053Z,37.83
2019-02-09T07:26:21.241Z,37.63
2019-02-09T07:31:29.439Z,35.37
2019-02-09T07:36:35.459Z,39.27
2019-02-09T07:41:46.877Z,36.87
2019-02-09T07:46:56.392Z,35.93
2019-02-09T07:52:02.506Z,35.63
2019-02-09T07:57:10.287Z,33.90
2019-02-09T08:02:18.482Z,33.13
2019-02-09T08:07:25.946Z,34.90
2019-02-09T08:12:33.897Z,33.80
2019-02-09T08:17:41.565Z,35.70
2019-02-09T08:22:49.221Z,35.07
2019-02-09T08:27:56.892Z,32.13
2019-02-09T08:33:05.042Z,31.63
2019-02-09T08:38:13.146Z,30.57
2019-02-09T08:43:20.996Z,26.13
2019-02-09T08:48:29.051Z,25.40
2019-02-09T08:53:40.340Z,25.33
2019-02-09T08:58:46.591Z,24.77
2019-02-09T09:03:53.921Z,24.03
2019-02-09T09:09:01.377Z,23.47
2019-02-09T09:14:12.830Z,25.60
2019-02-09T09:19:21.938Z,25.53
2019-02-09T09:24:29.779Z,24.93
2019-02-09T09:29:39.592Z,25.00
2019-02-09T09:34:48.619Z,25.83
2019-02-09T09:39:56.353Z,26.40
2019-02-09T09:45:08.490Z,27.10
2019-02-09T09:50:19.057Z,28.27
2019-02-09T09:55:28.006Z,29.00
2019-02-09T10:00:34.615Z,33.07
2019-02-09T10:05:47.507Z,33.00
2019-02-09T10:10:54.402Z,32.83
2019-02-09T10:16:02.337Z,33.97
2019-02-09T10:21:13.360Z,33.03
2019-02-09T10:26:19.964Z,32.43
2019-02-09T10:31:27.759Z,32.97
2019-02-09T10:36:36.804Z,30.93
2019-02-09T10:41:44.344Z,33.27
2019-02-09T10:46:52.852Z,28.53
2019-02-09T10:51:59.886Z,25.90
2019-02-09T10:57:07.420Z,29.70
2019-02-09T11:02:13.965Z,29.30
2019-02-09T11:07:21.794Z,30.30
2019-02-09T11:12:29.465Z,29.30
2019-02-09T11:17:37.411Z,28.90
2019-02-09T11:22:44.700Z,27.03
2019-02-09T11:27:53.933Z,24.53
2019-02-09T11:33:02.739Z,24.63
2019-02-09T11:38:10.357Z,25.33
2019-02-09T11:43:18.858Z,24.90
2019-02-09T11:48:26.849Z,25.93
2019-02-09T11:53:34.138Z,26.33
2019-02-09T11:58:41.600Z,24.03
2019-02-09T12:03:51.518Z,23.70
2019-02-09T12:08:57.675Z,23.77
2019-02-09T12:14:04.684Z,22.97
2019-02-09T12:19:12.660Z,25.33
2019-02-09T12:24:19.503Z,23.70
2019-02-09T12:29:27.060Z,23.87
2019-02-09T12:34:33.933Z,23.33
2019-02-09T12:39:43.158Z,24.67
2019-02-09T12:44:50.941Z,25.53
2019-02-09T12:49:59.496Z,23.93
2019-02-09T12:55:08.520Z,22.33
2019-02-09T13:00:18.538Z,22.83
2019-02-09T13:05:24.863Z,22.60
2019-02-09T13:10:32.426Z,21.70
2019-02-09T13:15:39.718Z,21.27
2019-02-09T13:20:48.336Z,21.67
2019-02-09T13:25:54.594Z,20.40
2019-02-09T13:31:06.278Z,39.53
2019-02-09T13:36:13.973Z,21.73
2019-02-09T13:41:22.077Z,20.57
2019-02-09T13:46:29.422Z,20.03
2019-02-09T13:51:37.339Z,19.20
2019-02-09T13:56:45.390Z,19.20
2019-02-09T14:01:55.660Z,18.53
2019-02-09T14:07:04.230Z,18.13
2019-02-09T14:12:12.109Z,18.07
2019-02-09T14:17:19.621Z,18.47
2019-02-09T14:22:28.425Z,18.80
2019-02-09T14:27:36.079Z,18.17
2019-02-09T14:32:44.987Z,21.13
2019-02-09T14:37:54.170Z,17.93
2019-02-09T14:43:02.128Z,19.97
2019-02-09T14:48:10.500Z,19.47
2019-02-09T14:53:18.402Z,21.23
2019-02-09T14:58:24.609Z,17.60
2019-02-09T15:03:32.477Z,17.77
2019-02-09T15:08:39.595Z,18.00
2019-02-09T15:13:46.396Z,17.53
2019-02-09T15:18:55.583Z,18.60
2019-02-09T15:24:03.610Z,19.77
2019-02-09T15:29:11.219Z,20.33
2019-02-09T15:34:19.882Z,23.43
2019-02-09T15:39:28.975Z,22.90
2019-02-09T15:44:35.226Z,23.67
2019-02-09T15:49:43.142Z,26.67
2019-02-09T15:54:49.486Z,28.73
2019-02-09T15:59:55.413Z,24.63
2019-02-09T16:05:03.177Z,27.23
2019-02-09T16:10:10.270Z,25.37
2019-02-09T16:15:22.118Z,25.53
2019-02-09T16:20:28.683Z,25.73
2019-02-09T16:25:35.170Z,25.53
2019-02-09T16:30:43.219Z,26.23
2019-02-09T16:35:50.132Z,28.57
2019-02-09T16:40:57.455Z,28.87
2019-02-09T16:46:07.189Z,30.17
2019-02-09T16:51:14.503Z,31.00
2019-02-09T16:56:23.419Z,30.10
2019-02-09T17:01:30.822Z,31.73
2019-02-09T17:06:38.723Z,30.37
2019-02-09T17:11:44.796Z,34.63
2019-02-09T17:16:52.349Z,34.03
2019-02-09T17:21:59.617Z,32.30
2019-02-09T17:27:07.306Z,34.90
2019-02-09T17:32:14.422Z,36.87
2019-02-09T17:37:22.222Z,34.47
2019-02-09T17:42:30.346Z,45.13
2019-02-09T17:47:37.759Z,42.37
2019-02-09T17:52:44.250Z,42.60
2019-02-09T17:57:52.148Z,43.60
2019-02-09T18:02:59.612Z,42.60
2019-02-09T18:08:08.130Z,45.63
2019-02-09T18:13:15.886Z,45.43
2019-02-09T18:18:24.992Z,44.10
2019-02-09T18:23:33.722Z,42.03
2019-02-09T18:28:44.288Z,63.77
2019-02-09T18:33:52.991Z,43.80
2019-02-09T18:39:00.609Z,42.77
2019-02-09T18:44:08.047Z,43.03
2019-02-09T18:49:15.126Z,45.23
2019-02-09T18:54:22.971Z,45.57
2019-02-09T18:59:30.194Z,42.47
2019-02-09T19:04:37.611Z,42.27
2019-02-09T19:09:44.856Z,46.27
2019-02-09T19:14:52.246Z,46.20
2019-02-09T19:20:00.312Z,43.67
2019-02-09T19:25:08.162Z,49.70
2019-02-09T19:30:17.497Z,48.80
2019-02-09T19:35:25.136Z,45.07
2019-02-09T19:40:33.924Z,47.27
2019-02-09T19:45:42.880Z,47.33
2019-02-09T19:50:51.024Z,51.10
2019-02-09T19:55:58.883Z,48.27
2019-02-09T20:01:07.163Z,49.47
2019-02-09T20:06:13.943Z,53.43
2019-02-09T20:11:21.092Z,51.27
2019-02-09T20:16:29.149Z,52.60
2019-02-09T20:21:37.164Z,50.57
2019-02-09T20:26:44.951Z,51.37
2019-02-09T20:31:51.603Z,50.60
2019-02-09T20:36:58.630Z,50.50
2019-02-09T20:42:05.279Z,52.97
2019-02-09T20:47:13.071Z,53.67
2019-02-09T20:52:19.933Z,54.33
2019-02-09T20:57:27.420Z,53.57
2019-02-09T21:02:34.974Z,52.17
2019-02-09T21:07:45.323Z,55.40
2019-02-09T21:12:52.386Z,55.30
2019-02-09T21:18:01.940Z,57.67
2019-02-09T21:23:08.328Z,56.33
2019-02-09T21:28:17.603Z,53.80
2019-02-09T21:33:25.625Z,57.60
2019-02-09T21:38:33.152Z,54.73
2019-02-09T21:43:40.199Z,54.40
2019-02-09T21:48:47.961Z,61.93
2019-02-09T21:53:56.305Z,55.13
2019-02-09T21:59:05.011Z,55.93
2019-02-09T22:04:12.531Z,56.33
2019-02-09T22:09:20.234Z,58.70
2019-02-09T22:14:27.353Z,62.53
2019-02-09T22:19:34.759Z,56.57
2019-02-09T22:24:42.811Z,56.37
2019-02-09T22:29:50.461Z,53.27
2019-02-09T22:34:58.240Z,57.30
2019-02-09T22:40:07.297Z,57.13
2019-02-09T22:45:15.769Z,58.13
2019-02-09T22:50:28.625Z,54.27
2019-02-09T22:55:35.604Z,52.97
2019-02-09T23:01:05.099Z,53.43
2019-02-09T23:06:42.235Z,52.10
2019-02-09T23:11:50.274Z,53.07
2019-02-09T23:16:56.859Z,48.43
2019-02-09T23:22:04.294Z,52.23
2019-02-09T23:27:11.127Z,47.50
2019-02-09T23:32:17.951Z,46.27
2019-02-09T23:37:24.504Z,49.37
2019-02-09T23:42:32.340Z,44.60
2019-02-09T23:47:40.063Z,44.73
2019-02-09T23:52:47.510Z,41.03
2019-02-09T23:57:55.343Z,34.63
